MSC Maria Saveria — 3FLE8 — position and weather

sailwx.info

Track history (hours):
 
Tides and Currents Weather Stations Pressure Air Temp Water Temp Dewpoint Dewpoint Depression Visibility Wind Speed Wind Dir Waves Ship Positions

MSC Maria Saveria

Last reported at 2015-Jul-26 21:30 UTC. Time now 2015-Jul-29 22:02 UTC.
Position N 26°11' E 055°52'.

Length 366 m; draft 10.4 m.

Type: Ship (hazmat cat A). MMSI: 372400000.

Date/timePositionNaut miles runAvg speedWind from/ knotsBaromVisibWave heightAir tempDewpointWater temp
2015-Jul-26 21:30N 26°11' E 055°52'1515.7
2015-Jul-26 20:33N 26°02' E 055°39'1515.2
2015-Jul-26 19:33N 25°52' E 055°26'1515.2
2015-Jul-26 18:33N 25°43' E 055°13'1616.0
2015-Jul-26 17:33N 25°31' E 055°00'1615.7
2015-Jul-26 16:33N 25°16' E 054°55'1212.1
2015-Jul-26 15:33N 25°05' E 054°59'5 5.3
2015-Jul-26 14:33N 25°01' E 055°03'0 0.0
2015-Jul-26 04:33N 25°01' E 055°03'0 0.0
2015-Jul-26 03:33N 25°01' E 055°03'0 0.0
2015-Jul-26 02:07N 25°01' E 055°03'0 0.0
2015-Jul-26 01:34N 25°01' E 055°03'0 0.0
2015-Jul-26 00:33N 25°01' E 055°03'0 0.0
2015-Jul-25 23:33N 25°01' E 055°03'0 0.0
2015-Jul-25 22:34N 25°01' E 055°03'0 0.0
2015-Jul-25 21:31N 25°01' E 055°03'0 0.0
2015-Jul-25 20:33N 25°01' E 055°03'0 0.0
2015-Jul-25 19:33N 25°01' E 055°03'0 0.0
2015-Jul-25 18:30N 25°01' E 055°03'0 0.0
2015-Jul-25 17:34N 25°01' E 055°03'0 0.0
2015-Jul-25 16:33N 25°01' E 055°03'0 0.0
2015-Jul-25 15:34N 25°01' E 055°03'0 0.0
2015-Jul-25 14:31N 25°01' E 055°03'0 0.0
2015-Jul-25 13:34N 25°01' E 055°03'0 0.0
2015-Jul-25 12:33N 25°01' E 055°03'0 0.0
2015-Jul-25 11:34N 25°01' E 055°03'56 6.2
2015-Jul-25 02:27N 25°55' E 055°24'8 8.5
2015-Jul-25 01:33N 26°01' E 055°29'9 8.2
2015-Jul-25 00:29N 26°08' E 055°35'8 8.2
2015-Jul-24 23:30N 26°14' E 055°41'10 8.5
2015-Jul-24 22:19N 26°20' E 055°49'7 8.7
2015-Jul-24 21:32N 26°25' E 055°55'  
Track history (hours):
 
Tides and Currents Weather Stations Pressure Air Temp Water Temp Dewpoint Dewpoint Depression Visibility Wind Speed Wind Dir Waves Ship Positions

MSC Maria Saveria

Last reported at 2015-Jul-26 21:30 UTC. Time now 2015-Jul-29 22:02 UTC.
Position N 26°11' E 055°52'.

Length 366 m; draft 10.4 m.

Type: Ship (hazmat cat A). MMSI: 372400000.

Date/timePositionNaut miles runAvg speedWind from/ knotsBaromVisibWave heightAir tempDewpointWater temp
2015-Jul-26 21:30N 26°11' E 055°52'1515.7
2015-Jul-26 20:33N 26°02' E 055°39'1515.2
2015-Jul-26 19:33N 25°52' E 055°26'1515.2
2015-Jul-26 18:33N 25°43' E 055°13'1616.0
2015-Jul-26 17:33N 25°31' E 055°00'1615.7
2015-Jul-26 16:33N 25°16' E 054°55'1212.1
2015-Jul-26 15:33N 25°05' E 054°59'5 5.3
2015-Jul-26 14:33N 25°01' E 055°03'0 0.0
2015-Jul-26 04:33N 25°01' E 055°03'0 0.0
2015-Jul-26 03:33N 25°01' E 055°03'0 0.0
2015-Jul-26 02:07N 25°01' E 055°03'0 0.0
2015-Jul-26 01:34N 25°01' E 055°03'0 0.0
2015-Jul-26 00:33N 25°01' E 055°03'0 0.0
2015-Jul-25 23:33N 25°01' E 055°03'0 0.0
2015-Jul-25 22:34N 25°01' E 055°03'0 0.0
2015-Jul-25 21:31N 25°01' E 055°03'0 0.0
2015-Jul-25 20:33N 25°01' E 055°03'0 0.0
2015-Jul-25 19:33N 25°01' E 055°03'0 0.0
2015-Jul-25 18:30N 25°01' E 055°03'0 0.0
2015-Jul-25 17:34N 25°01' E 055°03'0 0.0
2015-Jul-25 16:33N 25°01' E 055°03'0 0.0
2015-Jul-25 15:34N 25°01' E 055°03'0 0.0
2015-Jul-25 14:31N 25°01' E 055°03'0 0.0
2015-Jul-25 13:34N 25°01' E 055°03'0 0.0
2015-Jul-25 12:33N 25°01' E 055°03'0 0.0
2015-Jul-25 11:34N 25°01' E 055°03'56 6.2
2015-Jul-25 02:27N 25°55' E 055°24'8 8.5
2015-Jul-25 01:33N 26°01' E 055°29'9 8.2
2015-Jul-25 00:29N 26°08' E 055°35'8 8.2
2015-Jul-24 23:30N 26°14' E 055°41'10 8.5
2015-Jul-24 22:19N 26°20' E 055°49'7 8.7
2015-Jul-24 21:32N 26°25' E 055°55'  

Dump ship's entire track history